sensor_id;sensor_type;location;lat;lon;timestamp;pressure;altitude;pressure_sealevel;temperature;humidity
27958;BME280;15295;42.658;23.374;2023-04-07T00:01:32;94240.63;;;8.18;34.03
27958;BME280;15295;42.658;23.374;2023-04-07T00:04:03;94283.41;;;8.45;34.10
27958;BME280;15295;42.658;23.374;2023-04-07T00:06:28;94284.59;;;8.34;34.12
27958;BME280;15295;42.658;23.374;2023-04-07T00:08:54;94297.78;;;8.39;34.09
27958;BME280;15295;42.658;23.374;2023-04-07T00:11:19;94291.97;;;8.44;33.96
27958;BME280;15295;42.658;23.374;2023-04-07T00:13:48;94303.25;;;8.53;33.63
27958;BME280;15295;42.658;23.374;2023-04-07T00:16:29;94303.63;;;8.51;33.65
27958;BME280;15295;42.658;23.374;2023-04-07T00:18:56;94306.34;;;8.51;33.66
27958;BME280;15295;42.658;23.374;2023-04-07T00:21:21;94295.47;;;8.41;33.43
27958;BME280;15295;42.658;23.374;2023-04-07T00:23:50;94302.06;;;8.43;33.55
27958;BME280;15295;42.658;23.374;2023-04-07T00:26:21;94298.94;;;8.45;33.55
27958;BME280;15295;42.658;23.374;2023-04-07T00:31:49;94264.38;;;8.31;33.33
27958;BME280;15295;42.658;23.374;2023-04-07T00:34:14;94291.97;;;8.47;33.32
27958;BME280;15295;42.658;23.374;2023-04-07T00:36:40;94275.25;;;8.35;33.38
27958;BME280;15295;42.658;23.374;2023-04-07T00:39:05;94286.16;;;8.31;33.33
27958;BME280;15295;42.658;23.374;2023-04-07T00:41:36;94275.25;;;8.35;33.47
27958;BME280;15295;42.658;23.374;2023-04-07T00:44:04;94283.78;;;8.37;33.54
27958;BME280;15295;42.658;23.374;2023-04-07T00:46:41;94302.47;;;8.52;33.48
27958;BME280;15295;42.658;23.374;2023-04-07T00:49:07;94300.13;;;8.47;33.47
27958;BME280;15295;42.658;23.374;2023-04-07T00:51:32;94284.59;;;8.44;33.55
27958;BME280;15295;42.658;23.374;2023-04-07T00:53:59;94286.09;;;8.49;34.06
27958;BME280;15295;42.658;23.374;2023-04-07T00:56:26;94283.00;;;8.47;36.68
27958;BME280;15295;42.658;23.374;2023-04-07T00:58:51;94302.84;;;8.47;38.00
27958;BME280;15295;42.658;23.374;2023-04-07T01:04:06;94300.09;;;8.19;39.03
27958;BME280;15295;42.658;23.374;2023-04-07T01:06:49;94291.94;;;8.09;39.77
27958;BME280;15295;42.658;23.374;2023-04-07T01:09:24;94289.22;;;7.91;40.16
27958;BME280;15295;42.658;23.374;2023-04-07T01:12:19;94278.69;;;7.79;40.44
27958;BME280;15295;42.658;23.374;2023-04-07T01:14:50;94284.50;;;7.70;40.79
27958;BME280;15295;42.658;23.374;2023-04-07T01:17:20;94284.09;;;7.72;40.81
27958;BME280;15295;42.658;23.374;2023-04-07T01:22:20;94278.28;;;7.66;40.84
27958;BME280;15295;42.658;23.374;2023-04-07T01:30:28;94274.78;;;7.69;40.68
27958;BME280;15295;42.658;23.374;2023-04-07T01:32:57;94276.28;;;7.53;41.17
27958;BME280;15295;42.658;23.374;2023-04-07T01:35:42;94276.25;;;7.39;41.51
27958;BME280;15295;42.658;23.374;2023-04-07T01:38:11;94275.84;;;7.30;41.97
27958;BME280;15295;42.658;23.374;2023-04-07T01:40:39;94261.03;;;7.13;42.22
27958;BME280;15295;42.658;23.374;2023-04-07T01:43:07;94261.03;;;7.17;42.26
27958;BME280;15295;42.658;23.374;2023-04-07T01:45:34;94278.13;;;7.21;42.35
27958;BME280;15295;42.658;23.374;2023-04-07T01:48:00;94266.03;;;7.04;42.58
27958;BME280;15295;42.658;23.374;2023-04-07T01:50:28;94255.13;;;6.93;42.53
27958;BME280;15295;42.658;23.374;2023-04-07T01:52:54;94265.25;;;7.03;42.75
27958;BME280;15295;42.658;23.374;2023-04-07T01:55:21;94259.06;;;7.07;42.46
27958;BME280;15295;42.658;23.374;2023-04-07T01:58:24;94266.50;;;7.27;42.72
27958;BME280;15295;42.658;23.374;2023-04-07T02:00:52;94263.34;;;7.11;42.99
27958;BME280;15295;42.658;23.374;2023-04-07T02:04:17;94254.78;;;7.02;43.21
27958;BME280;15295;42.658;23.374;2023-04-07T02:06:21;94246.28;;;7.07;42.51
27958;BME280;15295;42.658;23.374;2023-04-07T02:08:51;94271.59;;;7.29;42.25
27958;BME280;15295;42.658;23.374;2023-04-07T02:11:25;94263.78;;;7.27;42.42
27958;BME280;15295;42.658;23.374;2023-04-07T02:13:53;94262.69;;;7.35;42.01
27958;BME280;15295;42.658;23.374;2023-04-07T02:16:31;94268.09;;;7.42;42.16
27958;BME280;15295;42.658;23.374;2023-04-07T02:19:03;94263.09;;;7.51;42.07
27958;BME280;15295;42.658;23.374;2023-04-07T02:21:29;94265.81;;;7.48;42.45
27958;BME280;15295;42.658;23.374;2023-04-07T02:23:55;94243.97;;;7.23;42.54
27958;BME280;15295;42.658;23.374;2023-04-07T02:26:26;94252.56;;;7.36;42.35
27958;BME280;15295;42.658;23.374;2023-04-07T02:28:52;94261.53;;;7.47;42.14
27958;BME280;15295;42.658;23.374;2023-04-07T02:31:23;94254.16;;;7.47;41.81
27958;BME280;15295;42.658;23.374;2023-04-07T02:33:50;94250.28;;;7.48;41.80
27958;BME280;15295;42.658;23.374;2023-04-07T02:36:40;94250.28;;;7.55;42.21
27958;BME280;15295;42.658;23.374;2023-04-07T02:39:06;94251.81;;;7.53;42.25
27958;BME280;15295;42.658;23.374;2023-04-07T02:41:31;94261.16;;;7.55;42.04
27958;BME280;15295;42.658;23.374;2023-04-07T02:43:57;94246.38;;;7.53;41.80
27958;BME280;15295;42.658;23.374;2023-04-07T02:46:22;94249.13;;;7.56;42.03
27958;BME280;15295;42.658;23.374;2023-04-07T02:48:48;94256.53;;;7.66;42.02
27958;BME280;15295;42.658;23.374;2023-04-07T02:51:14;94212.22;;;7.48;41.84
27958;BME280;15295;42.658;23.374;2023-04-07T02:54:03;94273.66;;;7.85;41.68
27958;BME280;15295;42.658;23.374;2023-04-07T02:56:28;94279.06;;;7.81;41.76
27958;BME280;15295;42.658;23.374;2023-04-07T02:58:54;94265.47;;;7.74;41.60
27958;BME280;15295;42.658;23.374;2023-04-07T03:01:19;94274.03;;;7.83;41.64
27958;BME280;15295;42.658;23.374;2023-04-07T03:03:46;94259.25;;;7.73;41.46
27958;BME280;15295;42.658;23.374;2023-04-07T03:06:12;94261.97;;;7.66;41.32
27958;BME280;15295;42.658;23.374;2023-04-07T03:08:45;94277.53;;;7.80;41.50
27958;BME280;15295;42.658;23.374;2023-04-07T03:11:10;94274.81;;;7.91;41.29
27958;BME280;15295;42.658;23.374;2023-04-07T03:13:35;94277.53;;;7.98;41.39
27958;BME280;15295;42.658;23.374;2023-04-07T03:16:01;94276.75;;;7.94;41.14
27958;BME280;15295;42.658;23.374;2023-04-07T03:18:26;94287.66;;;8.01;40.98
27958;BME280;15295;42.658;23.374;2023-04-07T03:20:52;94277.16;;;7.99;40.66
27958;BME280;15295;42.658;23.374;2023-04-07T03:23:19;94268.97;;;7.96;40.78
27958;BME280;15295;42.658;23.374;2023-04-07T03:25:45;94273.28;;;7.97;41.08
27958;BME280;15295;42.658;23.374;2023-04-07T03:28:11;94276.75;;;7.94;41.06
27958;BME280;15295;42.658;23.374;2023-04-07T03:30:36;94261.22;;;7.84;40.85
27958;BME280;15295;42.658;23.374;2023-04-07T03:33:03;94250.34;;;7.80;40.43
27958;BME280;15295;42.658;23.374;2023-04-07T03:35:37;94254.22;;;7.90;38.89
27958;BME280;15295;42.658;23.374;2023-04-07T03:38:02;94274.81;;;8.01;39.10
27958;BME280;15295;42.658;23.374;2023-04-07T03:40:28;94258.91;;;8.00;38.58
27958;BME280;15295;42.658;23.374;2023-04-07T03:42:53;94265.91;;;8.08;37.87
27958;BME280;15295;42.658;23.374;2023-04-07T03:45:41;94249.94;;;8.10;36.64
27958;BME280;15295;42.658;23.374;2023-04-07T03:48:08;94262.78;;;8.16;36.35
27958;BME280;15295;42.658;23.374;2023-04-07T03:50:40;94273.69;;;8.27;35.94
27958;BME280;15295;42.658;23.374;2023-04-07T03:53:06;94269.78;;;8.24;35.70
27958;BME280;15295;42.658;23.374;2023-04-07T03:55:32;94254.22;;;8.11;34.89
27958;BME280;15295;42.658;23.374;2023-04-07T03:57:58;94248.00;;;8.24;34.73
27958;BME280;15295;42.658;23.374;2023-04-07T04:00:23;94257.75;;;8.32;34.42
27958;BME280;15295;42.658;23.374;2023-04-07T04:02:48;94276.41;;;8.41;34.64
27958;BME280;15295;42.658;23.374;2023-04-07T04:05:14;94268.66;;;8.36;34.61
27958;BME280;15295;42.658;23.374;2023-04-07T04:07:40;94251.91;;;8.16;34.83
27958;BME280;15295;42.658;23.374;2023-04-07T04:10:06;94285.38;;;8.38;36.64
27958;BME280;15295;42.658;23.374;2023-04-07T04:12:32;94286.09;;;8.24;38.57
27958;BME280;15295;42.658;23.374;2023-04-07T04:14:57;94268.63;;;8.08;39.49
27958;BME280;15295;42.658;23.374;2023-04-07T04:17:23;94268.59;;;7.94;40.45
27958;BME280;15295;42.658;23.374;2023-04-07T04:19:49;94281.81;;;7.95;40.52
27958;BME280;15295;42.658;23.374;2023-04-07T04:22:15;94296.59;;;8.01;41.11
27958;BME280;15295;42.658;23.374;2023-04-07T04:24:41;94282.59;;;7.96;40.92
27958;BME280;15295;42.658;23.374;2023-04-07T04:27:06;94296.19;;;7.92;40.52
27958;BME280;15295;42.658;23.374;2023-04-07T04:29:33;94296.19;;;7.89;40.57
27958;BME280;15295;42.658;23.374;2023-04-07T04:31:58;94306.28;;;7.81;41.00
27958;BME280;15295;42.658;23.374;2023-04-07T04:34:23;94309.38;;;7.69;41.61
27958;BME280;15295;42.658;23.374;2023-04-07T04:36:49;94303.94;;;7.79;42.27
27958;BME280;15295;42.658;23.374;2023-04-07T04:39:15;94312.91;;;7.80;41.36
27958;BME280;15295;42.658;23.374;2023-04-07T04:41:40;94319.84;;;7.70;41.04
27958;BME280;15295;42.658;23.374;2023-04-07T04:44:05;94316.34;;;7.66;41.12
27958;BME280;15295;42.658;23.374;2023-04-07T04:46:31;94310.88;;;7.59;40.98
27958;BME280;15295;42.658;23.374;2023-04-07T04:48:56;94316.72;;;7.61;41.00
27958;BME280;15295;42.658;23.374;2023-04-07T04:51:22;94318.25;;;7.55;41.08
27958;BME280;15295;42.658;23.374;2023-04-07T04:53:48;94307.75;;;7.47;40.96
27958;BME280;15295;42.658;23.374;2023-04-07T04:56:13;94326.41;;;7.55;40.93
27958;BME280;15295;42.658;23.374;2023-04-07T04:58:40;94325.25;;;7.60;41.05
27958;BME280;15295;42.658;23.374;2023-04-07T05:01:10;94333.41;;;7.63;41.24
27958;BME280;15295;42.658;23.374;2023-04-07T05:03:36;94309.69;;;7.53;41.03
27958;BME280;15295;42.658;23.374;2023-04-07T05:06:01;94323.34;;;7.67;40.88
27958;BME280;15295;42.658;23.374;2023-04-07T05:08:26;94335.75;;;7.61;41.30
27958;BME280;15295;42.658;23.374;2023-04-07T05:10:59;94330.34;;;7.65;41.13
27958;BME280;15295;42.658;23.374;2023-04-07T05:13:24;94334.63;;;7.76;40.69
27958;BME280;15295;42.658;23.374;2023-04-07T05:15:50;94331.91;;;7.73;41.01
27958;BME280;15295;42.658;23.374;2023-04-07T05:18:15;94331.91;;;7.76;40.92
27958;BME280;15295;42.658;23.374;2023-04-07T05:20:43;94333.09;;;7.75;40.63
27958;BME280;15295;42.658;23.374;2023-04-07T05:23:08;94335.03;;;7.89;40.74
27958;BME280;15295;42.658;23.374;2023-04-07T05:25:34;94352.94;;;7.94;40.95
27958;BME280;15295;42.658;23.374;2023-04-07T05:27:59;94340.91;;;7.95;40.85
27958;BME280;15295;42.658;23.374;2023-04-07T05:30:25;94339.72;;;7.96;40.98
27958;BME280;15295;42.658;23.374;2023-04-07T05:32:52;94351.44;;;8.10;40.71
27958;BME280;15295;42.658;23.374;2023-04-07T05:35:17;94341.72;;;8.16;40.57
27958;BME280;15295;42.658;23.374;2023-04-07T05:37:43;94337.88;;;8.31;40.12
27958;BME280;15295;42.658;23.374;2023-04-07T05:40:08;94355.75;;;8.50;39.98
27958;BME280;15295;42.658;23.374;2023-04-07T05:42:34;94349.91;;;8.76;39.86
27958;BME280;15295;42.658;23.374;2023-04-07T05:44:59;94347.16;;;9.01;39.42
27958;BME280;15295;42.658;23.374;2023-04-07T05:47:25;94335.81;;;9.20;39.15
27958;BME280;15295;42.658;23.374;2023-04-07T05:49:58;94355.19;;;9.43;38.20
27958;BME280;15295;42.658;23.374;2023-04-07T05:52:25;94347.38;;;9.59;37.48
27958;BME280;15295;42.658;23.374;2023-04-07T05:54:50;94349.72;;;9.50;37.28
27958;BME280;15295;42.658;23.374;2023-04-07T05:57:15;94333.75;;;9.56;37.20
27958;BME280;15295;42.658;23.374;2023-04-07T05:59:41;94355.16;;;9.57;37.07
27958;BME280;15295;42.658;23.374;2023-04-07T06:02:06;94350.06;;;9.63;36.91
27958;BME280;15295;42.658;23.374;2023-04-07T06:04:32;94352.81;;;9.59;36.81
27958;BME280;15295;42.658;23.374;2023-04-07T06:07:00;94343.44;;;9.71;36.77
27958;BME280;15295;42.658;23.374;2023-04-07T06:09:25;94350.41;;;9.79;36.45
27958;BME280;15295;42.658;23.374;2023-04-07T06:11:52;94347.69;;;9.72;36.46
27958;BME280;15295;42.658;23.374;2023-04-07T06:14:17;94342.97;;;9.83;36.24
27958;BME280;15295;42.658;23.374;2023-04-07T06:16:43;94342.50;;;9.95;36.32
27958;BME280;15295;42.658;23.374;2023-04-07T06:19:08;94345.97;;;10.06;36.24
27958;BME280;15295;42.658;23.374;2023-04-07T06:21:34;94346.66;;;10.24;36.26
27958;BME280;15295;42.658;23.374;2023-04-07T06:24:00;94352.69;;;10.53;35.79
27958;BME280;15295;42.658;23.374;2023-04-07T06:26:25;94342.00;;;10.72;35.14
27958;BME280;15295;42.658;23.374;2023-04-07T06:28:51;94343.47;;;10.80;35.14
27958;BME280;15295;42.658;23.374;2023-04-07T06:31:17;94345.63;;;11.03;34.78
27958;BME280;15295;42.658;23.374;2023-04-07T06:33:43;94333.09;;;11.06;34.45
27958;BME280;15295;42.658;23.374;2023-04-07T06:36:08;94345.41;;;11.24;34.69
27958;BME280;15295;42.658;23.374;2023-04-07T06:38:34;94355.53;;;11.27;34.63
27958;BME280;15295;42.658;23.374;2023-04-07T06:41:00;94349.66;;;11.29;34.15
27958;BME280;15295;42.658;23.374;2023-04-07T06:43:26;94341.84;;;11.27;33.79
27958;BME280;15295;42.658;23.374;2023-04-07T06:45:51;94347.94;;;11.42;34.36
27958;BME280;15295;42.658;23.374;2023-04-07T06:48:16;94352.38;;;11.66;34.13
27958;BME280;15295;42.658;23.374;2023-04-07T06:50:45;94347.13;;;11.82;33.69
27958;BME280;15295;42.658;23.374;2023-04-07T06:53:11;94346.56;;;11.94;33.15
27958;BME280;15295;42.658;23.374;2023-04-07T06:55:36;94349.84;;;12.12;33.15
27958;BME280;15295;42.658;23.374;2023-04-07T06:58:03;94353.53;;;12.29;33.19
27958;BME280;15295;42.658;23.374;2023-04-07T07:00:29;94344.94;;;12.27;32.54
27958;BME280;15295;42.658;23.374;2023-04-07T07:02:55;94347.06;;;12.43;32.35
27958;BME280;15295;42.658;23.374;2023-04-07T07:05:21;94364.13;;;12.54;31.97
27958;BME280;15295;42.658;23.374;2023-04-07T07:07:47;94336.84;;;12.47;31.95
27958;BME280;15295;42.658;23.374;2023-04-07T07:10:13;94356.34;;;12.75;31.88
27958;BME280;15295;42.658;23.374;2023-04-07T07:12:38;94359.06;;;13.02;31.35
27958;BME280;15295;42.658;23.374;2023-04-07T07:15:04;94358.53;;;13.10;31.16
27958;BME280;15295;42.658;23.374;2023-04-07T07:17:30;94352.16;;;13.17;30.92
27958;BME280;15295;42.658;23.374;2023-04-07T07:19:55;94354.16;;;13.36;30.67
27958;BME280;15295;42.658;23.374;2023-04-07T07:22:22;94374.50;;;13.58;30.45
27958;BME280;15295;42.658;23.374;2023-04-07T07:24:47;94360.56;;;13.69;29.91
27958;BME280;15295;42.658;23.374;2023-04-07T07:27:13;94362.72;;;13.81;30.11
27958;BME280;15295;42.658;23.374;2023-04-07T07:29:38;94369.31;;;14.03;30.02
27958;BME280;15295;42.658;23.374;2023-04-07T07:32:04;94373.47;;;14.31;29.08
27958;BME280;15295;42.658;23.374;2023-04-07T07:34:31;94378.88;;;14.54;28.88
27958;BME280;15295;42.658;23.374;2023-04-07T07:37:00;94378.53;;;14.84;28.67
27958;BME280;15295;42.658;23.374;2023-04-07T07:39:27;94380.28;;;14.94;26.47
27958;BME280;15295;42.658;23.374;2023-04-07T07:41:54;94367.03;;;15.05;25.59
27958;BME280;15295;42.658;23.374;2023-04-07T07:44:20;94364.53;;;14.79;25.42
27958;BME280;15295;42.658;23.374;2023-04-07T07:46:47;94364.81;;;14.48;25.47
27958;BME280;15295;42.658;23.374;2023-04-07T07:49:13;94378.72;;;14.41;25.59
27958;BME280;15295;42.658;23.374;2023-04-07T07:51:39;94376.41;;;14.40;25.21
27958;BME280;15295;42.658;23.374;2023-04-07T07:54:05;94375.03;;;14.32;25.25
27958;BME280;15295;42.658;23.374;2023-04-07T07:56:30;94378.31;;;14.23;25.60
27958;BME280;15295;42.658;23.374;2023-04-07T07:58:56;94379.47;;;13.86;26.01
27958;BME280;15295;42.658;23.374;2023-04-07T08:01:23;94379.19;;;13.81;25.67
27958;BME280;15295;42.658;23.374;2023-04-07T08:03:48;94374.03;;;13.63;26.10
27958;BME280;15295;42.658;23.374;2023-04-07T08:06:14;94381.44;;;13.86;26.10
27958;BME280;15295;42.658;23.374;2023-04-07T08:08:40;94370.53;;;13.82;25.68
27958;BME280;15295;42.658;23.374;2023-04-07T08:11:06;94380.66;;;14.05;25.81
27958;BME280;15295;42.658;23.374;2023-04-07T08:13:31;94378.63;;;14.09;25.50
27958;BME280;15295;42.658;23.374;2023-04-07T08:15:57;94380.44;;;14.16;25.53
27958;BME280;15295;42.658;23.374;2023-04-07T08:18:22;94388.66;;;14.16;25.37
27958;BME280;15295;42.658;23.374;2023-04-07T08:20:49;94382.22;;;14.06;25.46
27958;BME280;15295;42.658;23.374;2023-04-07T08:23:16;94368.81;;;14.08;25.76
27958;BME280;15295;42.658;23.374;2023-04-07T08:25:41;94382.50;;;14.31;25.54
27958;BME280;15295;42.658;23.374;2023-04-07T08:28:07;94379.44;;;14.45;25.68
27958;BME280;15295;42.658;23.374;2023-04-07T08:30:32;94377.28;;;14.53;25.41
27958;BME280;15295;42.658;23.374;2023-04-07T08:32:58;94380.03;;;14.53;25.09
27958;BME280;15295;42.658;23.374;2023-04-07T08:35:24;94372.50;;;14.57;25.09
27958;BME280;15295;42.658;23.374;2023-04-07T08:37:49;94376.66;;;14.81;25.34
27958;BME280;15295;42.658;23.374;2023-04-07T08:40:16;94377.94;;;15.09;25.00
27958;BME280;15295;42.658;23.374;2023-04-07T08:42:48;94377.25;;;15.37;24.95
27958;BME280;15295;42.658;23.374;2023-04-07T08:45:15;94381.63;;;15.51;24.55
27958;BME280;15295;42.658;23.374;2023-04-07T08:47:41;94372.84;;;15.39;24.49
27958;BME280;15295;42.658;23.374;2023-04-07T08:50:08;94381.25;;;15.65;24.59
27958;BME280;15295;42.658;23.374;2023-04-07T08:52:54;94378.75;;;15.70;24.19
27958;BME280;15295;42.658;23.374;2023-04-07T08:55:21;94385.41;;;15.57;23.82
27958;BME280;15295;42.658;23.374;2023-04-07T08:57:46;94377.84;;;15.44;24.01
27958;BME280;15295;42.658;23.374;2023-04-07T09:00:13;94380.34;;;15.39;24.02
27958;BME280;15295;42.658;23.374;2023-04-07T09:02:40;94381.81;;;15.43;23.80
27958;BME280;15295;42.658;23.374;2023-04-07T09:05:08;94377.72;;;15.64;24.16
27958;BME280;15295;42.658;23.374;2023-04-07T09:07:35;94378.34;;;15.56;23.85
27958;BME280;15295;42.658;23.374;2023-04-07T09:10:01;94381.81;;;15.43;23.82
27958;BME280;15295;42.658;23.374;2023-04-07T09:12:29;94380.50;;;15.32;23.93
27958;BME280;15295;42.658;23.374;2023-04-07T09:14:55;94384.25;;;15.09;23.99
27958;BME280;15295;42.658;23.374;2023-04-07T09:17:20;94378.25;;;15.27;24.05
27958;BME280;15295;42.658;23.374;2023-04-07T09:19:47;94359.28;;;15.16;24.54
27958;BME280;15295;42.658;23.374;2023-04-07T09:22:12;94376.91;;;15.51;24.16
27958;BME280;15295;42.658;23.374;2023-04-07T09:24:40;94383.81;;;15.72;23.87
27958;BME280;15295;42.658;23.374;2023-04-07T09:27:14;94379.09;;;15.72;24.19
27958;BME280;15295;42.658;23.374;2023-04-07T09:29:42;94382.22;;;15.87;23.90
27958;BME280;15295;42.658;23.374;2023-04-07T09:32:11;94389.25;;;15.75;23.88
27958;BME280;15295;42.658;23.374;2023-04-07T09:34:40;94388.50;;;15.87;23.72
27958;BME280;15295;42.658;23.374;2023-04-07T09:37:06;94383.56;;;15.82;23.96
27958;BME280;15295;42.658;23.374;2023-04-07T09:39:50;94376.63;;;15.90;23.79
27958;BME280;15295;42.658;23.374;2023-04-07T09:42:16;94384.31;;;15.83;23.61
27958;BME280;15295;42.658;23.374;2023-04-07T09:44:46;94381.16;;;15.68;24.08
27958;BME280;15295;42.658;23.374;2023-04-07T09:47:12;94381.06;;;15.72;24.01
27958;BME280;15295;42.658;23.374;2023-04-07T09:49:49;94391.31;;;15.71;24.16
27958;BME280;15295;42.658;23.374;2023-04-07T09:52:16;94383.06;;;15.71;23.89
27958;BME280;15295;42.658;23.374;2023-04-07T09:54:45;94393.47;;;15.64;24.33
27958;BME280;15295;42.658;23.374;2023-04-07T09:57:11;94383.59;;;15.34;24.50
27958;BME280;15295;42.658;23.374;2023-04-07T09:59:39;94391.88;;;15.34;24.91
27958;BME280;15295;42.658;23.374;2023-04-07T10:02:07;94399.19;;;15.24;24.67
27958;BME280;15295;42.658;23.374;2023-04-07T10:04:33;94394.72;;;15.30;25.06
27958;BME280;15295;42.658;23.374;2023-04-07T10:06:59;94392.88;;;15.40;25.27
27958;BME280;15295;42.658;23.374;2023-04-07T10:09:29;94397.69;;;15.68;25.06
27958;BME280;15295;42.658;23.374;2023-04-07T10:11:56;94389.78;;;15.99;24.42
27958;BME280;15295;42.658;23.374;2023-04-07T10:14:27;94393.03;;;16.23;24.33
27958;BME280;15295;42.658;23.374;2023-04-07T10:16:54;94395.50;;;16.46;23.93
27958;BME280;15295;42.658;23.374;2023-04-07T10:19:20;94390.97;;;16.39;23.80
27958;BME280;15295;42.658;23.374;2023-04-07T10:21:50;94397.34;;;16.36;23.72
27958;BME280;15295;42.658;23.374;2023-04-07T10:27:10;94394.41;;;16.02;24.09
27958;BME280;15295;42.658;23.374;2023-04-07T10:29:41;94400.22;;;15.91;24.47
27958;BME280;15295;42.658;23.374;2023-04-07T10:32:07;94383.44;;;15.86;24.31
27958;BME280;15295;42.658;23.374;2023-04-07T10:37:16;94408.63;;;16.00;24.12
27958;BME280;15295;42.658;23.374;2023-04-07T10:39:45;94404.38;;;15.83;24.18
27958;BME280;15295;42.658;23.374;2023-04-07T10:45:07;94392.91;;;15.56;24.69
27958;BME280;15295;42.658;23.374;2023-04-07T10:47:34;94400.81;;;15.54;24.80
27958;BME280;15295;42.658;23.374;2023-04-07T10:50:22;94404.00;;;15.53;25.07
27958;BME280;15295;42.658;23.374;2023-04-07T10:53:00;94392.97;;;15.53;25.52
27958;BME280;15295;42.658;23.374;2023-04-07T10:55:44;94409.22;;;15.63;26.06
27958;BME280;15295;42.658;23.374;2023-04-07T10:58:24;94404.25;;;15.58;26.39
27958;BME280;15295;42.658;23.374;2023-04-07T11:03:26;94394.44;;;15.25;26.57
27958;BME280;15295;42.658;23.374;2023-04-07T11:06:04;94411.31;;;15.27;26.80
27958;BME280;15295;42.658;23.374;2023-04-07T11:11:12;94408.66;;;15.23;26.57
27958;BME280;15295;42.658;23.374;2023-04-07T11:13:45;94411.56;;;15.16;26.68
27958;BME280;15295;42.658;23.374;2023-04-07T11:16:11;94411.75;;;15.09;26.43
27958;BME280;15295;42.658;23.374;2023-04-07T11:18:38;94404.25;;;14.94;26.51
27958;BME280;15295;42.658;23.374;2023-04-07T11:21:06;94397.44;;;14.82;26.75
27958;BME280;15295;42.658;23.374;2023-04-07T11:23:43;94419.28;;;14.89;26.85
27958;BME280;15295;42.658;23.374;2023-04-07T11:26:13;94415.34;;;14.90;27.07
27958;BME280;15295;42.658;23.374;2023-04-07T11:28:46;94408.03;;;15.00;27.11
27958;BME280;15295;42.658;23.374;2023-04-07T11:31:20;94416.56;;;15.05;27.10
27958;BME280;15295;42.658;23.374;2023-04-07T11:33:51;94404.78;;;15.05;27.14
27958;BME280;15295;42.658;23.374;2023-04-07T11:36:25;94419.81;;;15.16;27.34
27958;BME280;15295;42.658;23.374;2023-04-07T11:38:52;94418.88;;;15.07;27.39
27958;BME280;15295;42.658;23.374;2023-04-07T11:41:18;94419.56;;;15.11;27.12
27958;BME280;15295;42.658;23.374;2023-04-07T11:43:43;94415.69;;;15.08;26.93
27958;BME280;15295;42.658;23.374;2023-04-07T11:46:17;94418.78;;;15.10;26.96
27958;BME280;15295;42.658;23.374;2023-04-07T11:48:44;94414.06;;;15.11;27.15
27958;BME280;15295;42.658;23.374;2023-04-07T11:51:17;94415.63;;;15.12;27.29
27958;BME280;15295;42.658;23.374;2023-04-07T11:53:43;94416.22;;;15.19;27.48
27958;BME280;15295;42.658;23.374;2023-04-07T11:56:15;94416.91;;;15.23;27.55
27958;BME280;15295;42.658;23.374;2023-04-07T11:58:51;94419.72;;;15.36;27.37
27958;BME280;15295;42.658;23.374;2023-04-07T12:01:18;94400.28;;;15.27;27.13
27958;BME280;15295;42.658;23.374;2023-04-07T12:06:32;94392.84;;;15.11;27.76
27958;BME280;15295;42.658;23.374;2023-04-07T12:09:06;94415.53;;;15.31;27.55
27958;BME280;15295;42.658;23.374;2023-04-07T12:11:33;94415.53;;;15.31;27.66
27958;BME280;15295;42.658;23.374;2023-04-07T12:13:59;94395.16;;;15.29;27.76
27958;BME280;15295;42.658;23.374;2023-04-07T12:16:27;94405.56;;;15.37;27.84
27958;BME280;15295;42.658;23.374;2023-04-07T12:18:53;94411.47;;;15.36;27.54
27958;BME280;15295;42.658;23.374;2023-04-07T12:21:18;94409.38;;;15.43;27.60
27958;BME280;15295;42.658;23.374;2023-04-07T12:23:45;94417.00;;;15.52;27.48
27958;BME280;15295;42.658;23.374;2023-04-07T12:26:12;94406.41;;;15.51;27.46
27958;BME280;15295;42.658;23.374;2023-04-07T12:28:37;94422.41;;;15.56;27.36
27958;BME280;15295;42.658;23.374;2023-04-07T12:31:03;94418.09;;;15.55;27.00
27958;BME280;15295;42.658;23.374;2023-04-07T12:33:29;94416.22;;;15.52;27.55
27958;BME280;15295;42.658;23.374;2023-04-07T12:35:57;94406.59;;;15.43;27.66
27958;BME280;15295;42.658;23.374;2023-04-07T12:38:23;94414.00;;;15.47;27.72
27958;BME280;15295;42.658;23.374;2023-04-07T12:40:48;94416.22;;;15.52;27.49
27958;BME280;15295;42.658;23.374;2023-04-07T12:43:14;94410.91;;;15.44;27.54
27958;BME280;15295;42.658;23.374;2023-04-07T12:45:39;94391.41;;;15.35;27.76
27958;BME280;15295;42.658;23.374;2023-04-07T12:48:05;94416.19;;;15.35;27.90
27958;BME280;15295;42.658;23.374;2023-04-07T12:50:30;94404.25;;;15.26;27.94
27958;BME280;15295;42.658;23.374;2023-04-07T12:52:56;94419.84;;;15.32;27.94
27958;BME280;15295;42.658;23.374;2023-04-07T12:55:24;94418.09;;;15.38;27.78
27958;BME280;15295;42.658;23.374;2023-04-07T12:57:49;94414.56;;;15.38;27.98
27958;BME280;15295;42.658;23.374;2023-04-07T13:00:15;94407.38;;;15.44;27.87
27958;BME280;15295;42.658;23.374;2023-04-07T13:02:41;94413.53;;;15.64;27.93
27958;BME280;15295;42.658;23.374;2023-04-07T13:05:07;94415.28;;;15.58;27.99
27958;BME280;15295;42.658;23.374;2023-04-07T13:07:34;94429.22;;;15.51;27.83
27958;BME280;15295;42.658;23.374;2023-04-07T13:10:01;94411.91;;;15.51;27.72
27958;BME280;15295;42.658;23.374;2023-04-07T13:12:27;94429.22;;;15.51;27.70
27958;BME280;15295;42.658;23.374;2023-04-07T13:14:52;94422.69;;;15.45;27.74
27958;BME280;15295;42.658;23.374;2023-04-07T13:17:18;94425.97;;;15.56;27.72
27958;BME280;15295;42.658;23.374;2023-04-07T13:19:44;94420.00;;;15.41;27.65
27958;BME280;15295;42.658;23.374;2023-04-07T13:22:11;94425.19;;;15.39;27.84
27958;BME280;15295;42.658;23.374;2023-04-07T13:24:37;94402.88;;;15.34;27.79
27958;BME280;15295;42.658;23.374;2023-04-07T13:27:02;94421.31;;;15.37;28.27
27958;BME280;15295;42.658;23.374;2023-04-07T13:29:29;94425.44;;;15.29;28.22